createdAt,value
2023-05-10T03:26:34.592Z,97014.31
2023-05-10T03:29:20.128Z,97018.69
2023-05-10T03:32:05.381Z,97014.31
2023-05-10T03:34:50.867Z,97016.50
2023-05-10T03:37:36.049Z,97020.31
2023-05-10T03:40:21.166Z,97014.84
2023-05-10T03:43:08.543Z,97015.09
2023-05-10T03:45:53.731Z,97018.38
2023-05-10T03:48:38.874Z,97024.09
2023-05-10T03:51:24.180Z,97017.03
2023-05-10T03:54:10.291Z,97022.44
2023-05-10T03:56:55.724Z,97023.88
2023-05-10T03:59:41.016Z,97029.84
2023-05-10T04:02:26.344Z,97032.06
2023-05-10T04:05:11.477Z,97037.75
2023-05-10T04:07:56.844Z,97040.19
2023-05-10T04:10:42.144Z,97040.66
2023-05-10T04:13:27.590Z,97041.31
2023-05-10T04:16:15.879Z,97035.94
2023-05-10T04:19:01.067Z,97039.59
2023-05-10T04:21:46.351Z,97033.13
2023-05-10T04:24:31.809Z,97044.53
2023-05-10T04:27:17.338Z,97027.66
2023-05-10T04:30:02.630Z,97024.66
2023-05-10T04:32:48.075Z,97018.91
2023-05-10T04:35:33.255Z,97019.44
2023-05-10T04:38:18.480Z,97022.38
2023-05-10T04:41:03.684Z,97013.09
2023-05-10T04:43:49.175Z,97011.22
2023-05-10T04:46:34.453Z,97013.06
2023-05-10T04:49:19.428Z,97014.41
2023-05-10T04:52:04.475Z,97010.09
2023-05-10T04:54:49.523Z,97011.44
2023-05-10T04:57:34.628Z,97019.88
2023-05-10T05:00:19.779Z,97017.69
2023-05-10T05:03:04.903Z,97023.13
2023-05-10T05:05:49.929Z,97020.41
2023-05-10T05:08:35.477Z,97013.03
2023-05-10T05:11:20.753Z,97019.56
2023-05-10T05:14:06.064Z,97029.97
2023-05-10T05:16:51.569Z,97026.72
2023-05-10T05:19:36.785Z,97026.81
2023-05-10T05:22:22.298Z,97029.50
2023-05-10T05:25:07.628Z,97043.97
2023-05-10T05:27:53.007Z,97025.72
2023-05-10T05:30:38.427Z,97028.88
2023-05-10T05:33:23.687Z,97030.47
2023-05-10T05:36:09.060Z,97038.75
2023-05-10T05:38:54.075Z,97043.69
2023-05-10T05:41:39.484Z,97037.06
2023-05-10T05:44:24.723Z,97044.06
2023-05-10T05:47:10.791Z,97042.66
2023-05-10T05:49:55.975Z,97040.94
2023-05-10T05:52:41.441Z,97044.19
2023-05-10T05:55:26.801Z,97040.44
2023-05-10T05:58:11.780Z,97051.81
2023-05-10T06:00:57.100Z,97050.16
2023-05-10T06:03:42.684Z,97047.50
2023-05-10T06:06:28.241Z,97042.75
2023-05-10T06:09:13.600Z,97050.09
2023-05-10T06:11:59.419Z,97046.28
2023-05-10T06:14:44.573Z,97049.00
2023-05-10T06:17:30.186Z,97043.09
2023-05-10T06:20:15.596Z,97044.69
2023-05-10T06:23:00.999Z,97044.72
2023-05-10T06:25:46.228Z,97043.53
2023-05-10T06:28:31.468Z,97041.69
2023-05-10T06:31:16.715Z,97051.75
2023-05-10T06:34:02.114Z,97046.06
2023-05-10T06:36:47.407Z,97050.13
2023-05-10T06:39:32.805Z,97055.81
2023-05-10T06:42:18.379Z,97053.91
2023-05-10T06:45:03.716Z,97054.06
2023-05-10T06:47:49.098Z,97052.09
2023-05-10T06:50:34.515Z,97057.19
2023-05-10T06:53:19.834Z,97065.66
2023-05-10T06:56:05.340Z,97065.34
2023-05-10T06:58:50.617Z,97056.03
2023-05-10T07:01:36.121Z,97060.34
2023-05-10T07:04:21.397Z,97058.16
2023-05-10T07:07:06.810Z,97065.75
2023-05-10T07:09:52.198Z,97066.13
2023-05-10T07:12:37.643Z,97073.38
2023-05-10T07:15:23.029Z,97069.53
2023-05-10T07:18:08.615Z,97071.72
2023-05-10T07:20:53.944Z,97070.28
2023-05-10T07:23:39.377Z,97066.66
2023-05-10T07:26:24.719Z,97074.88
2023-05-10T07:29:10.041Z,97079.81
2023-05-10T07:31:57.930Z,97073.81
2023-05-10T07:34:43.638Z,97080.06
2023-05-10T07:37:28.909Z,97078.50
2023-05-10T07:40:14.170Z,97081.69
2023-05-10T07:42:59.476Z,97077.56
2023-05-10T07:45:44.626Z,97089.06
2023-05-10T07:48:29.946Z,97090.91
2023-05-10T07:51:15.336Z,97095.94
2023-05-10T07:54:00.437Z,97088.59
2023-05-10T07:56:45.847Z,97087.00
2023-05-10T07:59:31.063Z,97086.47
2023-05-10T08:02:16.135Z,97088.38
2023-05-10T08:05:01.457Z,97087.50
2023-05-10T08:07:46.555Z,97084.78
2023-05-10T08:10:31.988Z,97078.78
2023-05-10T08:13:17.262Z,97087.22
2023-05-10T08:16:02.768Z,97086.09
2023-05-10T08:18:47.818Z,97078.72
2023-05-10T08:21:33.110Z,97085.09
2023-05-10T08:24:18.186Z,97085.38
2023-05-10T08:27:03.682Z,97087.72
2023-05-10T08:29:50.475Z,97091.50
2023-05-10T08:32:35.918Z,97086.38
2023-05-10T08:35:21.090Z,97092.41
2023-05-10T08:38:06.102Z,97082.25
2023-05-10T08:40:51.546Z,97086.44
2023-05-10T08:43:37.009Z,97089.06
2023-05-10T08:46:22.374Z,97092.00
2023-05-10T08:49:07.739Z,97096.88
2023-05-10T08:51:53.096Z,97103.41
2023-05-10T08:54:38.471Z,97110.25
2023-05-10T08:57:23.723Z,97113.50
2023-05-10T09:00:09.067Z,97111.00
2023-05-10T09:02:54.425Z,97112.31
2023-05-10T09:05:39.804Z,97112.66
2023-05-10T09:08:25.211Z,97117.50
2023-05-10T09:11:10.553Z,97106.88
2023-05-10T09:13:55.867Z,97109.63
2023-05-10T09:16:41.007Z,97107.19
2023-05-10T09:19:25.847Z,97112.16
2023-05-10T09:22:10.961Z,97114.84
2023-05-10T09:24:56.338Z,97108.63
2023-05-10T09:27:41.811Z,97125.97
2023-05-10T09:30:27.122Z,97115.13
2023-05-10T09:33:12.722Z,97116.75
2023-05-10T09:35:58.102Z,97120.56
2023-05-10T09:38:43.562Z,97123.28
2023-05-10T09:41:29.160Z,97119.19
2023-05-10T09:44:14.460Z,97124.38
2023-05-10T09:47:00.749Z,97128.44
2023-05-10T09:49:45.957Z,97121.91
2023-05-10T09:52:31.431Z,97117.00
2023-05-10T09:55:17.151Z,97117.34
2023-05-10T09:58:02.343Z,97111.00
2023-05-10T10:00:47.745Z,97114.75
2023-05-10T10:03:33.126Z,97106.84
2023-05-10T10:06:29.037Z,97112.50
2023-05-10T10:09:14.984Z,97099.31
2023-05-10T10:12:00.472Z,97103.75
2023-05-10T10:14:45.824Z,97108.34
2023-05-10T10:17:31.209Z,97099.66
2023-05-10T10:20:16.905Z,97101.03
2023-05-10T10:23:02.063Z,97094.66
2023-05-10T10:25:47.506Z,97095.63
2023-05-10T10:28:33.016Z,97096.19
2023-05-10T10:31:18.314Z,97096.69
2023-05-10T10:34:03.426Z,97098.06
2023-05-10T10:36:48.745Z,97098.63
2023-05-10T10:39:34.189Z,97100.00
2023-05-10T10:42:19.391Z,97096.59
2023-05-10T10:45:07.802Z,97102.41
2023-05-10T10:47:52.985Z,97099.91
2023-05-10T10:50:38.201Z,97094.78
2023-05-10T10:53:23.612Z,97092.88
2023-05-10T10:56:08.900Z,97100.22
2023-05-10T10:58:54.139Z,97089.56
2023-05-10T11:01:39.172Z,97094.78
2023-05-10T11:04:24.311Z,97089.31
2023-05-10T11:07:09.619Z,97086.06
2023-05-10T11:09:55.111Z,97086.31
2023-05-10T11:12:40.340Z,97079.69
2023-05-10T11:15:25.722Z,97088.22
2023-05-10T11:18:11.123Z,97084.63
2023-05-10T11:20:56.604Z,97084.66
2023-05-10T11:23:41.949Z,97085.19
2023-05-10T11:26:29.698Z,97086.06
2023-05-10T11:29:14.957Z,97080.50
2023-05-10T11:32:00.255Z,97075.91
2023-05-10T11:34:45.561Z,97086.66
2023-05-10T11:37:30.986Z,97082.47
2023-05-10T11:40:16.600Z,97088.41
2023-05-10T11:43:02.158Z,97087.00
2023-05-10T11:45:47.339Z,97086.19
2023-05-10T11:48:32.453Z,97087.09
2023-05-10T11:51:17.893Z,97087.00
2023-05-10T11:54:03.279Z,97077.81
2023-05-10T11:56:48.596Z,97084.59
2023-05-10T11:59:33.949Z,97090.75
2023-05-10T12:02:19.609Z,97083.91
2023-05-10T12:05:05.917Z,97082.78
2023-05-10T12:07:51.315Z,97082.38
2023-05-10T12:10:36.622Z,97083.78
2023-05-10T12:13:22.146Z,97093.06
2023-05-10T12:16:07.612Z,97079.47
2023-05-10T12:18:52.915Z,97078.59
2023-05-10T12:21:38.274Z,97088.38
2023-05-10T12:24:23.537Z,97088.50
2023-05-10T12:30:12.130Z,97080.97
2023-05-10T12:32:57.355Z,97089.22
2023-05-10T12:35:43.165Z,97084.03
2023-05-10T12:38:28.233Z,97085.38
2023-05-10T12:41:13.232Z,97085.06
2023-05-10T12:43:58.305Z,97084.44
2023-05-10T12:46:43.481Z,97086.38
2023-05-10T12:49:28.903Z,97091.38
2023-05-10T12:52:14.177Z,97092.06
2023-05-10T12:54:59.620Z,97089.66
2023-05-10T12:57:44.758Z,97085.81
2023-05-10T13:00:30.004Z,97085.81
2023-05-10T13:03:15.391Z,97082.78
2023-05-10T13:06:00.647Z,97088.03
2023-05-10T13:08:45.975Z,97098.38
2023-05-10T13:11:33.058Z,97102.47
2023-05-10T13:14:19.809Z,97084.78
2023-05-10T13:17:05.061Z,97097.03
2023-05-10T13:19:50.209Z,97091.56
2023-05-10T13:22:40.134Z,97090.47
2023-05-10T13:25:25.595Z,97088.78
2023-05-10T13:28:10.903Z,97097.56
2023-05-10T13:30:55.868Z,97099.81
2023-05-10T13:33:40.952Z,97093.44
2023-05-10T13:36:29.096Z,97092.53
2023-05-10T13:39:14.219Z,97091.41
2023-05-10T13:41:59.507Z,97090.06
2023-05-10T13:44:45.523Z,97097.09
2023-05-10T13:47:30.987Z,97090.06
2023-05-10T13:50:16.320Z,97101.66
2023-05-10T13:53:01.534Z,97100.84
2023-05-10T13:55:46.688Z,97101.56
2023-05-10T13:58:32.163Z,97088.53
2023-05-10T14:01:17.619Z,97088.84
2023-05-10T14:04:02.738Z,97084.50
2023-05-10T14:06:48.153Z,97090.47
2023-05-10T14:09:33.415Z,97091.28
2023-05-10T14:12:18.929Z,97083.69
2023-05-10T14:15:07.398Z,97082.53
2023-05-10T14:17:52.572Z,97087.50
2023-05-10T14:20:37.949Z,97080.00
2023-05-10T14:23:23.161Z,97087.38
2023-05-10T14:26:08.453Z,97087.97
2023-05-10T14:28:53.859Z,97083.13
2023-05-10T14:31:39.326Z,97077.41
2023-05-10T14:34:24.879Z,97077.06
2023-05-10T14:37:10.100Z,97079.63
2023-05-10T14:39:57.134Z,97075.59
2023-05-10T14:42:42.517Z,97076.47
2023-05-10T14:45:27.773Z,97067.53
2023-05-10T14:48:12.982Z,97077.59
2023-05-10T14:50:58.227Z,97077.84
2023-05-10T14:53:43.547Z,97076.84
2023-05-10T14:56:28.847Z,97070.56
2023-05-10T14:59:14.030Z,97081.94
2023-05-10T15:01:59.952Z,97077.28
2023-05-10T15:04:45.841Z,97080.22
2023-05-10T15:07:34.665Z,97085.50
2023-05-10T15:10:19.903Z,97083.94
2023-05-10T15:13:05.157Z,97088.88
2023-05-10T15:15:50.461Z,97081.38
2023-05-10T15:18:35.861Z,97073.00
2023-05-10T15:21:21.083Z,97079.44
2023-05-10T15:24:06.458Z,97082.91
2023-05-10T15:26:51.551Z,97084.91
2023-05-10T15:29:37.096Z,97083.59
2023-05-10T15:32:22.522Z,97086.13
2023-05-10T15:35:08.207Z,97085.59
2023-05-10T15:37:53.570Z,97081.00
2023-05-10T15:40:38.919Z,97083.47
2023-05-10T15:43:24.244Z,97086.66
2023-05-10T15:46:09.533Z,97094.59
2023-05-10T15:48:54.860Z,97096.03
2023-05-10T15:51:39.879Z,97097.34
2023-05-10T15:54:25.282Z,97093.75
2023-05-10T15:57:10.779Z,97062.78
2023-05-10T15:59:56.005Z,97055.91
2023-05-10T16:02:41.097Z,97056.41
2023-05-10T16:05:26.172Z,97063.19
2023-05-10T16:08:11.534Z,97069.25
2023-05-10T16:10:56.816Z,97106.44
2023-05-10T16:13:42.168Z,97112.00
2023-05-10T16:16:27.695Z,97110.72
2023-05-10T16:19:12.900Z,97111.03
2023-05-10T16:21:58.266Z,97115.78
2023-05-10T16:24:43.354Z,97114.69
2023-05-10T16:27:28.579Z,97124.59
2023-05-10T16:30:13.686Z,97116.00
2023-05-10T16:32:58.846Z,97112.72
2023-05-10T16:35:44.271Z,97115.66
2023-05-10T16:38:29.592Z,97110.94
2023-05-10T16:41:14.908Z,97118.69
2023-05-10T16:44:00.171Z,97118.44
2023-05-10T16:46:48.403Z,97121.34
2023-05-10T16:49:33.455Z,97121.09
2023-05-10T16:52:18.718Z,97113.84
2023-05-10T16:55:04.011Z,97121.09
2023-05-10T16:57:49.350Z,97117.19
2023-05-10T17:00:34.595Z,97110.50
2023-05-10T17:03:20.140Z,97108.94
2023-05-10T17:06:05.316Z,97120.13
2023-05-10T17:08:50.718Z,97119.03
2023-05-10T17:11:35.707Z,97107.91
2023-05-10T17:14:21.245Z,97111.81
2023-05-10T17:17:06.591Z,97109.56
2023-05-10T17:19:52.020Z,97110.16
2023-05-10T17:22:37.495Z,97103.78
2023-05-10T17:25:22.664Z,97106.00
2023-05-10T17:28:08.209Z,97108.16
2023-05-10T17:30:54.683Z,97100.50
2023-05-10T17:33:39.960Z,97097.13
2023-05-10T17:36:25.427Z,97100.34
2023-05-10T17:39:10.698Z,97103.22
2023-05-10T17:41:56.127Z,97098.69
2023-05-10T17:44:41.411Z,97091.88
2023-05-10T17:47:26.762Z,97096.50
2023-05-10T17:50:12.350Z,97092.16
2023-05-10T17:52:57.823Z,97100.13
2023-05-10T17:55:43.365Z,97099.50
2023-05-10T17:58:28.975Z,97105.09
2023-05-10T18:01:14.375Z,97102.63
2023-05-10T18:03:59.976Z,97107.31
2023-05-10T18:06:45.303Z,97114.38
2023-05-10T18:09:30.735Z,97108.72
2023-05-10T18:12:16.144Z,97107.34
2023-05-10T18:15:01.534Z,97114.41
2023-05-10T18:17:47.233Z,97113.16
2023-05-10T18:20:32.728Z,97113.16
2023-05-10T18:23:18.286Z,97113.09
2023-05-10T18:26:03.620Z,97118.63
2023-05-10T18:28:49.009Z,97117.34
2023-05-10T18:31:34.622Z,97118.34
2023-05-10T18:34:19.864Z,97125.66
2023-05-10T18:37:05.304Z,97118.16
2023-05-10T18:39:50.833Z,97126.41
2023-05-10T18:42:36.318Z,97126.88
2023-05-10T18:45:21.626Z,97134.22
2023-05-10T18:48:07.041Z,97090.44
2023-05-10T18:50:52.445Z,97095.47
2023-05-10T18:53:39.087Z,97089.53
2023-05-10T18:56:24.386Z,97087.47
2023-05-10T18:59:12.756Z,97090.78
2023-05-10T19:01:58.125Z,97102.44
2023-05-10T19:04:43.555Z,97099.66
2023-05-10T19:07:29.026Z,97103.47
2023-05-10T19:10:20.622Z,97107.03
2023-05-10T19:13:06.015Z,97103.81
2023-05-10T19:15:51.450Z,97103.78
2023-05-10T19:18:38.906Z,97152.50
2023-05-10T19:21:24.822Z,97146.16
2023-05-10T19:24:11.225Z,97150.50
2023-05-10T19:26:56.708Z,97148.88
2023-05-10T19:29:42.153Z,97156.47
2023-05-10T19:32:27.502Z,97149.03
2023-05-10T19:35:12.863Z,97145.19
2023-05-10T19:37:58.342Z,97152.56
2023-05-10T19:40:45.110Z,97159.88
2023-05-10T19:43:32.749Z,97154.94
2023-05-10T19:46:20.515Z,97153.22
2023-05-10T19:49:05.808Z,97145.13
2023-05-10T19:51:51.265Z,97143.75
2023-05-10T19:54:36.469Z,97152.81
2023-05-10T19:57:21.983Z,97151.97
2023-05-10T20:00:07.375Z,97150.03
2023-05-10T20:02:52.700Z,97148.41
2023-05-10T20:05:38.099Z,97148.34
2023-05-10T20:08:23.533Z,97152.19
2023-05-10T20:11:08.932Z,97152.25
2023-05-10T20:13:54.329Z,97147.94
2023-05-10T20:16:39.681Z,97149.72
2023-05-10T20:19:28.185Z,97147.31
2023-05-10T20:22:13.554Z,97147.50
2023-05-10T20:24:58.930Z,97161.09
2023-05-10T20:27:44.317Z,97157.13
2023-05-10T20:30:29.559Z,97163.09
2023-05-10T20:33:15.010Z,97160.84
2023-05-10T20:36:00.498Z,97164.09
2023-05-10T20:38:45.842Z,97167.88
2023-05-10T20:41:31.123Z,97165.13
2023-05-10T20:44:17.659Z,97166.47
2023-05-10T20:47:03.004Z,97165.66
2023-05-10T20:49:48.401Z,97164.28
2023-05-10T20:52:33.848Z,97159.09
2023-05-10T20:55:19.165Z,97167.56
2023-05-10T20:58:05.144Z,97166.56
2023-05-10T21:00:50.563Z,97168.66
2023-05-10T21:03:35.536Z,97170.84
2023-05-10T21:06:20.942Z,97167.56
2023-05-10T21:09:06.391Z,97172.94
2023-05-10T21:11:51.862Z,97171.63
2023-05-10T21:14:37.368Z,97177.91
2023-05-10T21:17:22.717Z,97172.75
2023-05-10T21:20:08.197Z,97167.84
2023-05-10T21:22:53.561Z,97170.50
2023-05-10T21:25:39.023Z,97170.50
2023-05-10T21:28:24.548Z,97170.47
2023-05-10T21:31:09.826Z,97169.75
2023-05-10T21:33:55.315Z,97168.31
2023-05-10T21:36:40.647Z,97166.72
2023-05-10T21:39:26.097Z,97173.06
2023-05-10T21:42:11.524Z,97164.00
2023-05-10T21:44:56.540Z,97163.69
2023-05-10T21:47:42.165Z,97165.88
2023-05-10T21:50:27.446Z,97157.19
2023-05-10T21:53:12.703Z,97161.53
2023-05-10T21:55:58.055Z,97156.59
2023-05-10T21:58:43.372Z,97156.91
2023-05-10T22:01:28.566Z,97145.19
2023-05-10T22:04:13.948Z,97156.06
2023-05-10T22:06:59.268Z,97155.56
2023-05-10T22:09:44.661Z,97150.28
2023-05-10T22:12:29.817Z,97150.63
2023-05-10T22:15:15.255Z,97144.72
2023-05-10T22:18:00.594Z,97144.38
2023-05-10T22:20:45.960Z,97143.63
2023-05-10T22:23:31.141Z,97143.84
2023-05-10T22:26:16.529Z,97146.81
2023-05-10T22:29:01.796Z,97150.34
2023-05-10T22:31:47.107Z,97153.84
2023-05-10T22:34:32.505Z,97154.72
2023-05-10T22:37:17.984Z,97150.13
2023-05-10T22:40:03.270Z,97153.88
2023-05-10T22:42:48.598Z,97143.00
2023-05-10T22:45:33.762Z,97145.47
2023-05-10T22:48:19.361Z,97157.72
2023-05-10T22:51:04.439Z,97151.97
2023-05-10T22:53:49.806Z,97151.69
2023-05-10T22:56:35.155Z,97154.47
